< Typhoon 198821 1988 Season Typhoon 198823 >
Typhoon 198822 (LEE)
General InformationTrack Information on Google MapsDetailed Wind InformationList of All Images || Disaster Info.ResourceGoogle EarthGE AnimationAtom FeedGeoJSON
Detalied Best Track (Time Zone = UTC)
Year Month Day Hour Lat. Long. Pressure (hPa) Wind (kt) Class Image Chart
1988 9 19 06 17.7 142.7 1008 0 2 Image Chart
1988 9 19 12 17.8 141.5 1008 0 2 Image Chart
1988 9 19 18 17.9 140.2 1006 0 2 Image Chart
1988 9 20 00 18.0 139.0 1006 0 2 Image Chart
1988 9 20 06 18.0 137.8 1004 0 2 Image Chart
1988 9 20 12 18.0 136.5 1002 0 2 Image Chart
1988 9 20 18 18.0 135.3 1000 0 2 Image Chart
1988 9 21 00 18.0 134.0 996 35 3 Image Chart
1988 9 21 06 18.2 133.1 996 35 3 Image Chart
1988 9 21 12 18.5 132.2 992 40 3 Image Chart
1988 9 21 18 18.9 131.2 990 45 3 Image Chart
1988 9 22 00 19.4 130.4 990 45 3 Image Chart
1988 9 22 06 19.8 129.7 990 45 3 Image Chart
1988 9 22 12 20.1 129.0 990 45 3 Image Chart
1988 9 22 18 20.5 128.3 990 45 3 Image Chart
1988 9 23 00 21.1 127.6 990 50 4 Image Chart
1988 9 23 06 22.1 127.0 990 45 3 Image Chart
1988 9 23 12 22.7 127.0 992 45 3 Image Chart
1988 9 23 18 23.4 127.2 994 40 3 Image Chart
1988 9 24 00 24.1 127.8 996 40 3 Image Chart
1988 9 24 06 25.5 128.5 996 35 3 Image Chart
1988 9 24 12 26.5 129.5 996 35 3 Image Chart
1988 9 24 18 28.0 131.0 998 35 3 Image Chart
1988 9 25 00 30.0 133.0 1000 0 2 Image Chart
Japan Meteorological Agency Best Track Data | Correction Date : 1992-10-21
< Typhoon 198821 1988 Season Typhoon 198823 >

Help